createdAt,value
2023-02-18T00:01:34.673Z,63.85
2023-02-18T00:04:02.034Z,44.10
2023-02-18T00:06:32.577Z,52.95
2023-02-18T00:09:03.250Z,50.63
2023-02-18T00:11:34.290Z,46.33
2023-02-18T00:14:03.500Z,46.13
2023-02-18T00:16:31.438Z,56.40
2023-02-18T00:19:00.212Z,50.95
2023-02-18T00:21:27.317Z,28.13
2023-02-18T00:23:54.526Z,43.13
2023-02-18T00:26:21.528Z,49.60
2023-02-18T00:28:49.062Z,40.22
2023-02-18T00:31:19.618Z,47.15
2023-02-18T00:33:46.609Z,37.30
2023-02-18T00:36:16.350Z,50.13
2023-02-18T00:38:51.720Z,41.55
2023-02-18T00:41:19.514Z,39.65
2023-02-18T00:43:47.848Z,59.55
2023-02-18T00:46:15.373Z,58.90
2023-02-18T00:48:42.239Z,44.90
2023-02-18T00:51:10.536Z,42.47
2023-02-18T00:53:38.151Z,46.00
2023-02-18T00:56:06.740Z,55.63
2023-02-18T00:58:35.324Z,31.15
2023-02-18T01:01:07.414Z,30.87
2023-02-18T01:03:35.518Z,58.30
2023-02-18T01:06:02.535Z,39.53
2023-02-18T01:08:29.677Z,30.02
2023-02-18T01:10:58.812Z,39.60
2023-02-18T01:13:28.023Z,66.97
2023-02-18T01:15:55.419Z,52.33
2023-02-18T01:18:22.457Z,51.33
2023-02-18T01:20:49.285Z,64.78
2023-02-18T01:23:16.324Z,31.60
2023-02-18T01:25:43.328Z,64.00
2023-02-18T01:28:13.278Z,46.28
2023-02-18T01:30:40.473Z,40.63
2023-02-18T01:33:07.801Z,54.72
2023-02-18T01:35:37.621Z,57.05
2023-02-18T01:38:04.590Z,38.37
2023-02-18T01:40:31.890Z,42.13
2023-02-18T01:42:59.940Z,74.63
2023-02-18T01:45:35.736Z,57.28
2023-02-18T01:48:23.037Z,62.80
2023-02-18T01:50:59.333Z,47.97
2023-02-18T01:53:48.748Z,66.68
2023-02-18T01:56:22.618Z,65.13
2023-02-18T01:58:52.348Z,65.22
2023-02-18T02:01:19.525Z,89.78
2023-02-18T02:03:46.369Z,61.43
2023-02-18T02:06:18.530Z,72.57
2023-02-18T02:08:47.975Z,64.35
2023-02-18T02:11:40.941Z,75.30
2023-02-18T02:14:22.465Z,55.00
2023-02-18T02:17:10.790Z,43.97
2023-02-18T02:19:58.396Z,68.28
2023-02-18T02:22:50.145Z,50.08
2023-02-18T02:25:25.761Z,51.78
2023-02-18T02:28:20.487Z,64.53
2023-02-18T02:31:38.757Z,27.57
2023-02-18T02:34:05.732Z,43.78
2023-02-18T02:37:17.437Z,59.45
2023-02-18T02:40:15.758Z,43.08
2023-02-18T02:43:13.922Z,54.60
2023-02-18T02:45:44.171Z,51.53
2023-02-18T02:48:20.091Z,38.50
2023-02-18T02:50:55.534Z,49.65
2023-02-18T02:53:30.054Z,54.67
2023-02-18T02:55:57.189Z,50.60
2023-02-18T02:58:33.685Z,52.50
2023-02-18T03:01:21.279Z,60.05
2023-02-18T03:04:04.201Z,53.15
2023-02-18T03:06:40.790Z,50.67
2023-02-18T03:09:33.891Z,36.58
2023-02-18T03:12:25.922Z,29.30
2023-02-18T03:15:13.204Z,27.10
2023-02-18T03:18:03.671Z,40.97
2023-02-18T03:21:11.531Z,33.90
2023-02-18T03:23:51.832Z,44.30
2023-02-18T03:26:19.960Z,25.60
2023-02-18T03:28:50.920Z,29.50
2023-02-18T03:31:23.924Z,27.13
2023-02-18T03:34:09.426Z,27.85
2023-02-18T03:36:37.960Z,16.27
2023-02-18T03:39:14.030Z,31.10
2023-02-18T03:41:41.718Z,18.27
2023-02-18T03:44:10.370Z,25.02
2023-02-18T03:46:39.920Z,12.45
2023-02-18T03:49:06.924Z,17.00
2023-02-18T03:51:38.128Z,13.73
2023-02-18T03:54:05.165Z,17.40
2023-02-18T03:56:32.266Z,10.88
2023-02-18T03:58:59.593Z,17.65
2023-02-18T04:01:26.486Z,17.13
2023-02-18T04:03:55.482Z,13.73
2023-02-18T04:06:23.481Z,11.68
2023-02-18T04:08:50.665Z,10.02
2023-02-18T04:11:17.625Z,10.07
2023-02-18T04:13:45.431Z,8.10
2023-02-18T04:16:12.573Z,9.70
2023-02-18T04:18:39.492Z,10.30
2023-02-18T04:21:06.624Z,11.20
2023-02-18T04:23:33.469Z,11.70
2023-02-18T04:26:00.345Z,12.85
2023-02-18T04:28:27.170Z,9.63
2023-02-18T04:30:54.024Z,8.27
2023-02-18T04:33:29.670Z,11.45
2023-02-18T04:36:00.300Z,12.38
2023-02-18T04:38:27.142Z,10.30
2023-02-18T04:40:53.974Z,11.50
2023-02-18T04:43:21.234Z,13.93
2023-02-18T04:45:48.004Z,9.85
2023-02-18T04:48:14.767Z,12.45
2023-02-18T04:50:41.697Z,9.98
2023-02-18T04:53:14.690Z,8.70
2023-02-18T04:55:41.508Z,6.75
2023-02-18T04:58:10.137Z,14.80
2023-02-18T05:00:38.604Z,13.48
2023-02-18T05:03:05.490Z,9.05
2023-02-18T05:05:32.388Z,11.87
2023-02-18T05:07:59.159Z,14.43
2023-02-18T05:10:26.018Z,11.50
2023-02-18T05:12:52.850Z,12.45
2023-02-18T05:15:19.965Z,12.57
2023-02-18T05:17:46.916Z,10.63
2023-02-18T05:20:13.843Z,18.02
2023-02-18T05:22:43.692Z,17.75
2023-02-18T05:25:10.689Z,9.93
2023-02-18T05:27:37.646Z,24.80
2023-02-18T05:30:05.578Z,8.73
2023-02-18T05:32:32.449Z,12.45
2023-02-18T05:34:59.219Z,11.80
2023-02-18T05:37:26.022Z,7.00
2023-02-18T05:39:52.997Z,12.80
2023-02-18T05:42:19.883Z,11.77
2023-02-18T05:44:46.823Z,7.85
2023-02-18T05:47:13.822Z,19.00
2023-02-18T05:49:42.816Z,14.15
2023-02-18T05:52:10.780Z,15.65
2023-02-18T05:54:38.560Z,16.53
2023-02-18T05:57:05.616Z,13.40
2023-02-18T05:59:32.538Z,17.75
2023-02-18T06:01:59.431Z,21.90
2023-02-18T06:04:26.521Z,21.50
2023-02-18T06:06:53.355Z,14.33
2023-02-18T06:09:20.205Z,19.50
2023-02-18T06:11:47.100Z,10.50
2023-02-18T06:14:13.982Z,16.33
2023-02-18T06:16:43.486Z,25.65
2023-02-18T06:19:10.354Z,18.67
2023-02-18T06:21:37.211Z,15.57
2023-02-18T06:24:04.328Z,18.90
2023-02-18T06:26:31.376Z,21.00
2023-02-18T06:28:58.477Z,24.88
2023-02-18T06:31:25.579Z,14.30
2023-02-18T06:33:54.818Z,16.52
2023-02-18T06:36:25.851Z,31.20
2023-02-18T06:38:54.066Z,28.65
2023-02-18T06:41:21.012Z,31.27
2023-02-18T06:43:50.753Z,23.87
2023-02-18T06:46:17.617Z,23.48
2023-02-18T06:48:46.351Z,27.42
2023-02-18T06:51:13.227Z,17.10
2023-02-18T06:53:41.615Z,25.15
2023-02-18T06:56:08.688Z,17.63
2023-02-18T06:58:35.749Z,19.83
2023-02-18T07:01:02.650Z,24.10
2023-02-18T07:03:29.638Z,20.13
2023-02-18T07:05:56.776Z,22.30
2023-02-18T07:08:23.536Z,25.80
2023-02-18T07:10:50.449Z,15.63
2023-02-18T07:13:17.338Z,12.90
2023-02-18T07:15:46.835Z,24.50
2023-02-18T07:18:13.592Z,22.40
2023-02-18T07:20:40.389Z,20.83
2023-02-18T07:23:07.104Z,19.42
2023-02-18T07:25:36.849Z,35.78
2023-02-18T07:28:03.878Z,34.38
2023-02-18T07:30:30.893Z,21.13
2023-02-18T07:32:57.720Z,18.33
2023-02-18T07:35:24.557Z,27.73
2023-02-18T07:37:51.477Z,36.90
2023-02-18T07:40:21.229Z,23.60
2023-02-18T07:42:48.831Z,42.67
2023-02-18T07:45:16.129Z,33.87
2023-02-18T07:47:43.124Z,37.50
2023-02-18T07:50:10.850Z,32.85
2023-02-18T07:52:37.848Z,27.20
2023-02-18T07:55:07.935Z,31.40
2023-02-18T07:57:54.690Z,37.17
2023-02-18T08:00:21.618Z,29.55
2023-02-18T08:02:51.418Z,24.15
2023-02-18T08:05:21.363Z,22.75
2023-02-18T08:07:51.999Z,23.98
2023-02-18T08:10:19.645Z,16.43
2023-02-18T08:12:46.549Z,29.70
2023-02-18T08:15:13.933Z,20.92
2023-02-18T08:17:40.761Z,15.57
2023-02-18T08:20:08.174Z,24.17
2023-02-18T08:22:34.990Z,29.73
2023-02-18T08:25:01.927Z,13.40
2023-02-18T08:27:28.931Z,14.75
2023-02-18T08:29:56.058Z,23.90
2023-02-18T08:32:22.826Z,25.67
2023-02-18T08:34:52.799Z,18.77
2023-02-18T08:37:19.647Z,27.00
2023-02-18T08:39:46.497Z,21.45
2023-02-18T08:42:13.377Z,12.85
2023-02-18T08:44:40.169Z,18.30
2023-02-18T08:48:19.684Z,17.53
2023-02-18T08:49:54.500Z,15.82
2023-02-18T08:52:21.427Z,16.25
2023-02-18T08:54:48.252Z,19.17
2023-02-18T08:57:15.069Z,17.33
2023-02-18T08:59:42.024Z,12.73
2023-02-18T09:02:13.149Z,16.08
2023-02-18T09:04:39.961Z,22.48
2023-02-18T09:07:06.798Z,19.85
2023-02-18T09:09:33.580Z,18.73
2023-02-18T09:12:00.567Z,16.60
2023-02-18T09:14:27.458Z,12.38
2023-02-18T09:16:57.290Z,19.35
2023-02-18T09:19:30.076Z,12.07
2023-02-18T09:21:59.162Z,17.35
2023-02-18T09:24:27.488Z,12.30
2023-02-18T09:26:56.935Z,17.65
2023-02-18T09:29:23.711Z,18.17
2023-02-18T09:31:50.739Z,12.82
2023-02-18T09:34:18.604Z,14.05
2023-02-18T09:36:45.373Z,18.97
2023-02-18T09:39:13.794Z,17.77
2023-02-18T09:41:50.201Z,13.75
2023-02-18T09:44:49.265Z,24.00
2023-02-18T09:47:31.451Z,18.05
2023-02-18T09:50:08.127Z,16.13
2023-02-18T09:52:38.493Z,20.08
2023-02-18T09:55:41.749Z,14.65
2023-02-18T09:58:17.404Z,13.40
2023-02-18T10:00:57.483Z,17.88
2023-02-18T10:03:26.302Z,22.10
2023-02-18T10:06:10.962Z,18.88
2023-02-18T10:08:45.102Z,21.73
2023-02-18T10:11:16.721Z,20.85
2023-02-18T10:13:44.454Z,18.65
2023-02-18T10:16:16.943Z,25.30
2023-02-18T10:18:49.110Z,20.35
2023-02-18T10:21:20.448Z,21.88
2023-02-18T10:24:39.550Z,22.90
2023-02-18T10:27:08.738Z,13.93
2023-02-18T10:29:36.249Z,23.13
2023-02-18T10:32:23.424Z,18.00
2023-02-18T10:35:09.039Z,22.27
2023-02-18T10:37:55.911Z,13.60
2023-02-18T10:40:38.474Z,23.05
2023-02-18T10:43:39.190Z,38.27
2023-02-18T10:46:48.306Z,18.00
2023-02-18T10:49:24.289Z,25.60
2023-02-18T10:51:55.295Z,35.30
2023-02-18T10:54:27.509Z,29.80
2023-02-18T10:57:00.334Z,15.50
2023-02-18T10:59:33.095Z,21.77
2023-02-18T11:02:13.800Z,33.85
2023-02-18T11:04:43.542Z,17.38
2023-02-18T11:07:22.784Z,13.52
2023-02-18T11:09:56.164Z,24.77
2023-02-18T11:12:47.742Z,18.30
2023-02-18T11:15:14.550Z,13.52
2023-02-18T11:17:42.641Z,21.30
2023-02-18T11:20:37.059Z,10.93
2023-02-18T11:23:06.893Z,16.70
2023-02-18T11:25:59.971Z,13.32
2023-02-18T11:28:43.880Z,17.80
2023-02-18T11:31:17.954Z,10.40
2023-02-18T11:33:50.194Z,16.65
2023-02-18T11:36:25.177Z,19.03
2023-02-18T11:38:59.211Z,14.98
2023-02-18T11:41:39.810Z,22.00
2023-02-18T11:44:18.226Z,20.40
2023-02-18T11:47:06.400Z,14.07
2023-02-18T11:49:35.386Z,21.27
2023-02-18T11:52:14.171Z,18.05
2023-02-18T11:54:41.105Z,29.17
2023-02-18T11:57:13.687Z,12.90
2023-02-18T11:59:42.498Z,23.88
2023-02-18T12:02:09.421Z,26.67
2023-02-18T12:04:52.950Z,13.80
2023-02-18T12:07:25.656Z,19.33
2023-02-18T12:10:00.028Z,22.27
2023-02-18T12:12:40.430Z,23.20
2023-02-18T12:15:14.236Z,8.60
2023-02-18T12:18:04.080Z,20.33
2023-02-18T12:20:49.199Z,15.75
2023-02-18T12:23:27.107Z,15.15
2023-02-18T12:26:22.409Z,16.23
2023-02-18T12:29:06.246Z,18.73
2023-02-18T12:32:01.421Z,13.68
2023-02-18T12:35:02.040Z,20.15
2023-02-18T12:37:56.380Z,14.40
2023-02-18T12:40:50.727Z,18.52
2023-02-18T12:43:41.621Z,13.10
2023-02-18T12:46:27.169Z,16.98
2023-02-18T12:49:08.878Z,20.70
2023-02-18T12:52:01.502Z,19.02
2023-02-18T12:54:31.366Z,23.83
2023-02-18T12:57:04.079Z,19.77
2023-02-18T12:59:58.825Z,23.60
2023-02-18T13:02:39.410Z,15.80
2023-02-18T13:05:12.872Z,16.77
2023-02-18T13:08:02.612Z,15.05
2023-02-18T13:10:41.820Z,22.13
2023-02-18T13:13:19.069Z,21.23
2023-02-18T13:16:07.407Z,14.93
2023-02-18T13:18:41.176Z,15.30
2023-02-18T13:21:13.746Z,16.20
2023-02-18T13:23:55.285Z,19.60
2023-02-18T13:26:24.189Z,20.08
2023-02-18T13:29:18.777Z,21.70
2023-02-18T13:31:57.951Z,11.10
2023-02-18T13:34:30.712Z,11.63
2023-02-18T13:37:13.454Z,15.37
2023-02-18T13:39:51.630Z,21.13
2023-02-18T13:42:18.496Z,19.15
2023-02-18T13:44:57.679Z,17.65
2023-02-18T13:47:44.600Z,14.93
2023-02-18T13:50:26.477Z,15.00
2023-02-18T13:53:08.430Z,22.88
2023-02-18T13:55:57.276Z,21.90
2023-02-18T13:58:37.689Z,17.58
2023-02-18T14:01:10.740Z,21.10
2023-02-18T14:03:56.055Z,18.13
2023-02-18T14:06:28.033Z,23.08
2023-02-18T14:09:11.886Z,13.75
2023-02-18T14:12:04.140Z,22.95
2023-02-18T14:14:37.663Z,28.98
2023-02-18T14:17:19.564Z,14.47
2023-02-18T14:20:02.357Z,23.20
2023-02-18T14:22:32.256Z,18.13
2023-02-18T14:25:11.253Z,21.40
2023-02-18T14:27:39.948Z,15.48
2023-02-18T14:30:27.563Z,18.53
2023-02-18T14:32:59.650Z,29.77
2023-02-18T14:35:39.581Z,21.02
2023-02-18T14:38:28.123Z,23.70
2023-02-18T14:41:19.588Z,20.55
2023-02-18T14:44:24.125Z,26.33
2023-02-18T14:47:25.452Z,15.50
2023-02-18T14:50:04.265Z,15.98
2023-02-18T14:52:33.635Z,19.33
2023-02-18T14:55:08.472Z,19.30
2023-02-18T14:57:50.568Z,14.80
2023-02-18T15:00:20.299Z,17.52
2023-02-18T15:02:50.745Z,17.00
2023-02-18T15:05:24.490Z,21.83
2023-02-18T15:08:10.681Z,11.82
2023-02-18T15:10:59.283Z,31.13
2023-02-18T15:13:33.844Z,21.70
2023-02-18T15:16:08.980Z,30.98
2023-02-18T15:18:46.128Z,26.45
2023-02-18T15:21:26.134Z,26.25
2023-02-18T15:23:54.075Z,22.17
2023-02-18T15:26:22.008Z,18.25
2023-02-18T15:29:02.186Z,16.85
2023-02-18T15:31:36.177Z,25.27
2023-02-18T15:34:24.660Z,30.77
2023-02-18T15:36:53.081Z,29.10
2023-02-18T15:39:19.806Z,26.33
2023-02-18T15:41:51.799Z,36.20
2023-02-18T15:44:28.930Z,32.55
2023-02-18T15:46:59.697Z,57.92
2023-02-18T15:49:26.582Z,32.80
2023-02-18T15:51:58.490Z,41.17
2023-02-18T15:54:25.688Z,31.17
2023-02-18T15:57:00.247Z,54.90
2023-02-18T15:59:28.882Z,58.28
2023-02-18T16:02:05.815Z,36.20
2023-02-18T16:04:37.072Z,36.90
2023-02-18T16:07:49.686Z,42.08
2023-02-18T16:10:37.157Z,29.95
2023-02-18T16:13:08.415Z,25.02
2023-02-18T16:15:40.583Z,31.80
2023-02-18T16:18:19.746Z,32.67
2023-02-18T16:21:07.126Z,24.80
2023-02-18T16:23:43.874Z,24.35
2023-02-18T16:26:23.200Z,28.00
2023-02-18T16:28:53.894Z,33.50
2023-02-18T16:31:21.678Z,25.15
2023-02-18T16:33:49.872Z,34.42
2023-02-18T16:36:17.162Z,24.92
2023-02-18T16:38:45.426Z,14.95
2023-02-18T16:41:14.057Z,37.57
2023-02-18T16:43:41.722Z,37.80
2023-02-18T16:46:21.380Z,24.20
2023-02-18T16:48:55.729Z,39.08
2023-02-18T16:51:31.241Z,32.90
2023-02-18T16:53:58.506Z,26.83
2023-02-18T16:56:32.722Z,30.35
2023-02-18T16:59:00.261Z,27.33
2023-02-18T17:01:41.238Z,22.25
2023-02-18T17:04:15.853Z,26.00
2023-02-18T17:06:45.076Z,33.97
2023-02-18T17:09:25.699Z,32.60
2023-02-18T17:11:54.915Z,32.80
2023-02-18T17:14:23.124Z,38.50
2023-02-18T17:16:53.360Z,32.47
2023-02-18T17:19:21.364Z,22.90
2023-02-18T17:21:48.977Z,16.98
2023-02-18T17:24:18.206Z,32.63
2023-02-18T17:26:45.765Z,24.23
2023-02-18T17:29:12.702Z,22.85
2023-02-18T17:31:47.305Z,38.90
2023-02-18T17:34:31.142Z,36.35
2023-02-18T17:36:58.677Z,20.27
2023-02-18T17:39:25.511Z,34.85
2023-02-18T17:41:52.410Z,32.22
2023-02-18T17:44:23.780Z,31.33
2023-02-18T17:46:50.941Z,33.33
2023-02-18T17:49:18.113Z,27.55
2023-02-18T17:51:45.693Z,34.75
2023-02-18T17:54:15.756Z,29.65
2023-02-18T17:56:43.293Z,34.43
2023-02-18T17:59:10.176Z,24.17
2023-02-18T18:01:37.131Z,34.35
2023-02-18T18:04:04.605Z,21.70
2023-02-18T18:06:36.123Z,24.88
2023-02-18T18:09:03.299Z,31.97
2023-02-18T18:11:30.200Z,34.13
2023-02-18T18:13:58.094Z,43.65
2023-02-18T18:16:25.402Z,20.65
2023-02-18T18:18:52.708Z,21.55
2023-02-18T18:21:34.519Z,36.93
2023-02-18T18:24:02.099Z,39.65
2023-02-18T18:26:29.958Z,41.35
2023-02-18T18:28:57.056Z,21.00
2023-02-18T18:31:24.049Z,30.35
2023-02-18T18:33:53.459Z,26.30
2023-02-18T18:36:24.553Z,18.70
2023-02-18T18:38:52.570Z,45.38
2023-02-18T18:41:22.467Z,29.05
2023-02-18T18:43:52.223Z,40.22
2023-02-18T18:46:21.290Z,24.63
2023-02-18T18:48:48.326Z,30.02
2023-02-18T18:51:17.748Z,45.88
2023-02-18T18:53:44.722Z,33.70
2023-02-18T18:56:15.322Z,35.40
2023-02-18T18:58:42.384Z,27.83
2023-02-18T19:01:17.614Z,22.67
2023-02-18T19:03:48.530Z,34.20
2023-02-18T19:06:16.734Z,30.15
2023-02-18T19:08:45.312Z,35.58
2023-02-18T19:11:12.892Z,35.80
2023-02-18T19:13:40.989Z,31.67
2023-02-18T19:16:27.687Z,27.05
2023-02-18T19:18:55.116Z,27.67
2023-02-18T19:21:22.196Z,29.58
2023-02-18T19:23:49.281Z,31.67
2023-02-18T19:26:17.245Z,38.33
2023-02-18T19:28:45.755Z,27.15
2023-02-18T19:31:14.180Z,24.90
2023-02-18T19:33:41.519Z,33.88
2023-02-18T19:36:10.846Z,37.27
2023-02-18T19:38:38.323Z,33.22
2023-02-18T19:43:57.549Z,28.50
2023-02-18T19:46:27.909Z,36.10
2023-02-18T19:49:13.309Z,32.27
2023-02-18T19:51:51.153Z,36.90
2023-02-18T19:54:22.755Z,28.60
2023-02-18T19:56:52.105Z,32.22
2023-02-18T19:59:19.433Z,43.45
2023-02-18T20:01:46.353Z,33.50
2023-02-18T20:04:13.392Z,32.13
2023-02-18T20:06:41.381Z,33.75
2023-02-18T20:09:11.783Z,30.85
2023-02-18T20:11:38.911Z,28.08
2023-02-18T20:14:06.104Z,41.07
2023-02-18T20:16:33.252Z,31.50
2023-02-18T20:19:00.894Z,24.83
2023-02-18T20:21:28.317Z,22.05
2023-02-18T20:23:55.651Z,23.23
2023-02-18T20:26:23.831Z,23.73
2023-02-18T20:28:51.123Z,25.42
2023-02-18T20:31:18.480Z,28.73
2023-02-18T20:33:45.544Z,41.90
2023-02-18T20:36:16.637Z,44.85
2023-02-18T20:38:43.521Z,45.23
2023-02-18T20:41:14.576Z,38.15
2023-02-18T20:43:43.899Z,41.83
2023-02-18T20:46:13.948Z,35.72
2023-02-18T20:48:41.056Z,33.00
2023-02-18T20:51:24.129Z,23.37
2023-02-18T20:53:51.742Z,22.73
2023-02-18T20:56:22.669Z,28.85
2023-02-18T20:58:49.934Z,20.85
2023-02-18T21:01:19.028Z,20.15
2023-02-18T21:03:47.966Z,21.27
2023-02-18T21:06:18.117Z,21.88
2023-02-18T21:08:47.281Z,14.45
2023-02-18T21:11:22.383Z,14.77
2023-02-18T21:13:50.800Z,21.30
2023-02-18T21:16:18.909Z,19.40
2023-02-18T21:18:45.904Z,16.23
2023-02-18T21:21:14.004Z,31.95
2023-02-18T21:23:41.141Z,26.10
2023-02-18T21:26:11.971Z,34.45
2023-02-18T21:28:40.228Z,30.80
2023-02-18T21:31:31.908Z,33.40
2023-02-18T21:33:59.073Z,56.88
2023-02-18T21:36:27.035Z,52.05
2023-02-18T21:38:59.436Z,50.97
2023-02-18T21:41:26.861Z,34.87
2023-02-18T21:43:53.953Z,45.08
2023-02-18T21:46:29.943Z,46.42
2023-02-18T21:49:05.678Z,52.90
2023-02-18T21:51:58.178Z,37.10
2023-02-18T21:54:32.769Z,51.87
2023-02-18T21:57:04.160Z,57.28
2023-02-18T21:59:33.391Z,62.40
2023-02-18T22:02:02.012Z,68.60
2023-02-18T22:04:31.233Z,45.60
2023-02-18T22:06:58.799Z,62.37
2023-02-18T22:09:26.574Z,45.80
2023-02-18T22:11:56.777Z,50.50
2023-02-18T22:14:24.291Z,41.20
2023-02-18T22:16:51.248Z,35.85
2023-02-18T22:19:18.250Z,23.87
2023-02-18T22:21:45.846Z,48.28
2023-02-18T22:24:14.047Z,42.33
2023-02-18T22:26:41.728Z,51.65
2023-02-18T22:29:09.835Z,46.00
2023-02-18T22:31:36.849Z,47.13
2023-02-18T22:34:03.806Z,35.17
2023-02-18T22:36:31.680Z,56.33
2023-02-18T22:39:00.623Z,47.85
2023-02-18T22:41:30.397Z,42.55
2023-02-18T22:44:03.668Z,35.80
2023-02-18T22:46:33.473Z,41.92
2023-02-18T22:49:02.425Z,57.72
2023-02-18T22:51:32.996Z,45.78
2023-02-18T22:54:02.069Z,28.50
2023-02-18T22:56:30.016Z,46.83
2023-02-18T22:58:58.452Z,49.03
2023-02-18T23:01:31.296Z,48.97
2023-02-18T23:04:02.749Z,34.75
2023-02-18T23:06:29.883Z,40.80
2023-02-18T23:08:56.842Z,69.87
2023-02-18T23:11:23.939Z,50.33
2023-02-18T23:14:09.379Z,61.55
2023-02-18T23:16:56.504Z,67.13
2023-02-18T23:19:25.246Z,51.67
2023-02-18T23:21:52.934Z,68.90
2023-02-18T23:24:20.511Z,56.40
2023-02-18T23:26:47.713Z,68.25
2023-02-18T23:29:15.068Z,61.67
2023-02-18T23:31:42.619Z,54.92
2023-02-18T23:34:14.867Z,38.57
2023-02-18T23:36:43.076Z,57.05
2023-02-18T23:39:20.603Z,43.90
2023-02-18T23:41:48.076Z,49.45
2023-02-18T23:44:17.247Z,38.50
2023-02-18T23:46:44.852Z,39.73
2023-02-18T23:49:20.418Z,46.05
2023-02-18T23:51:47.542Z,48.97
2023-02-18T23:54:16.303Z,32.72
2023-02-18T23:56:43.993Z,39.53
2023-02-18T23:59:12.253Z,45.60
